createdAt,value
2023-01-07T00:00:22.436Z,90.30
2023-01-07T00:05:48.940Z,90.16
2023-01-07T00:10:56.262Z,90.14
2023-01-07T00:16:08.235Z,90.27
2023-01-07T00:21:18.417Z,90.23
2023-01-07T00:26:28.143Z,90.26
2023-01-07T00:31:39.958Z,90.28
2023-01-07T00:36:49.118Z,90.13
2023-01-07T00:42:13.749Z,90.11
2023-01-07T00:47:22.016Z,90.10
2023-01-07T00:52:28.948Z,89.99
2023-01-07T00:57:36.030Z,90.18
2023-01-07T01:02:46.104Z,90.29
2023-01-07T01:07:54.609Z,90.71
2023-01-07T01:13:01.763Z,90.61
2023-01-07T01:18:10.259Z,90.79
2023-01-07T01:23:17.881Z,90.53
2023-01-07T01:28:25.046Z,90.46
2023-01-07T01:33:33.254Z,90.57
2023-01-07T01:38:40.514Z,90.36
2023-01-07T01:43:47.792Z,90.40
2023-01-07T01:49:02.119Z,90.47
2023-01-07T01:54:15.473Z,90.82
2023-01-07T01:59:31.258Z,90.69
2023-01-07T02:04:43.407Z,91.07
2023-01-07T02:10:00.472Z,91.29
2023-01-07T02:15:15.392Z,91.06
2023-01-07T02:20:56.459Z,91.08
2023-01-07T02:26:59.849Z,91.00
2023-01-07T02:32:58.909Z,91.01
2023-01-07T02:38:14.877Z,91.35
2023-01-07T02:43:31.841Z,91.37
2023-01-07T02:48:40.951Z,91.23
2023-01-07T02:53:49.086Z,91.27
2023-01-07T02:59:28.230Z,91.36
2023-01-07T03:04:58.833Z,91.32
2023-01-07T03:10:13.040Z,91.37
2023-01-07T03:15:29.102Z,90.95
2023-01-07T03:20:43.221Z,91.74
2023-01-07T03:25:52.891Z,91.64
2023-01-07T03:31:02.094Z,91.47
2023-01-07T03:36:15.494Z,91.40
2023-01-07T03:41:39.598Z,91.35
2023-01-07T03:46:47.175Z,91.17
2023-01-07T03:51:55.448Z,90.91
2023-01-07T03:57:02.751Z,90.95
2023-01-07T04:02:09.436Z,90.97
2023-01-07T04:07:17.603Z,90.81
2023-01-07T04:12:24.693Z,90.71
2023-01-07T04:17:31.767Z,90.53
2023-01-07T04:22:40.193Z,90.51
2023-01-07T04:27:48.169Z,90.43
2023-01-07T04:32:55.187Z,90.40
2023-01-07T04:38:03.653Z,90.77
2023-01-07T04:43:11.663Z,90.53
2023-01-07T04:48:19.876Z,90.57
2023-01-07T04:53:31.027Z,90.40
2023-01-07T04:58:37.683Z,90.47
2023-01-07T05:03:44.616Z,90.46
2023-01-07T05:08:53.210Z,90.48
2023-01-07T05:14:02.607Z,90.71
2023-01-07T05:19:12.978Z,90.34
2023-01-07T05:24:25.983Z,90.62
2023-01-07T05:29:33.287Z,90.89
2023-01-07T05:34:40.685Z,90.96
2023-01-07T05:39:49.067Z,91.15
2023-01-07T05:45:00.161Z,91.23
2023-01-07T05:50:07.994Z,91.21
2023-01-07T05:55:15.931Z,91.16
2023-01-07T06:00:22.804Z,91.42
2023-01-07T06:05:29.682Z,91.52
2023-01-07T06:10:38.103Z,91.85
2023-01-07T06:15:44.600Z,91.74
2023-01-07T06:20:52.558Z,92.09
2023-01-07T06:26:00.954Z,91.44
2023-01-07T06:31:07.968Z,91.62
2023-01-07T06:36:14.732Z,91.84
2023-01-07T06:41:22.757Z,91.87
2023-01-07T06:46:29.667Z,91.79
2023-01-07T06:51:36.192Z,92.04
2023-01-07T06:56:44.453Z,92.26
2023-01-07T07:01:51.009Z,92.32
2023-01-07T07:06:58.066Z,92.35
2023-01-07T07:12:06.938Z,92.41
2023-01-07T07:17:13.536Z,92.64
2023-01-07T07:22:20.075Z,92.67
2023-01-07T07:27:30.234Z,92.53
2023-01-07T07:32:36.961Z,92.42
2023-01-07T07:37:43.885Z,92.19
2023-01-07T07:43:10.462Z,91.84
2023-01-07T07:48:18.794Z,91.96
2023-01-07T07:53:26.571Z,91.94
2023-01-07T07:58:34.648Z,91.69
2023-01-07T08:03:41.346Z,92.06
2023-01-07T08:08:48.023Z,92.44
2023-01-07T08:13:55.937Z,92.50
2023-01-07T08:19:02.459Z,92.47
2023-01-07T08:24:09.586Z,93.16
2023-01-07T08:29:17.854Z,93.26
2023-01-07T08:34:25.120Z,93.51
2023-01-07T08:39:32.035Z,93.98
2023-01-07T08:44:40.289Z,94.41
2023-01-07T08:49:47.333Z,94.24
2023-01-07T08:54:54.631Z,94.33
2023-01-07T09:00:03.071Z,94.65
2023-01-07T09:05:12.192Z,94.84
2023-01-07T09:10:19.274Z,95.05
2023-01-07T09:15:27.864Z,95.39
2023-01-07T09:20:34.948Z,95.27
2023-01-07T09:25:42.714Z,95.47
2023-01-07T09:30:51.132Z,95.67
2023-01-07T09:37:07.461Z,95.58
2023-01-07T09:42:26.847Z,95.65
2023-01-07T09:47:38.609Z,95.79
2023-01-07T09:52:50.838Z,95.91
2023-01-07T09:58:09.141Z,96.30
2023-01-07T10:03:31.532Z,96.13
2023-01-07T10:08:55.529Z,96.30
2023-01-07T10:14:33.472Z,96.39
2023-01-07T10:19:54.286Z,96.60
2023-01-07T10:25:13.451Z,96.47
2023-01-07T10:30:25.620Z,96.57
2023-01-07T10:35:38.247Z,96.91
2023-01-07T10:40:53.206Z,96.66
2023-01-07T10:46:20.576Z,96.89
2023-01-07T10:52:11.912Z,96.72
2023-01-07T10:57:22.905Z,96.80
2023-01-07T11:02:30.106Z,96.89
2023-01-07T11:07:45.539Z,96.81
2023-01-07T11:12:55.638Z,96.84
2023-01-07T11:18:05.043Z,97.08
2023-01-07T11:23:42.835Z,96.89
2023-01-07T11:28:55.342Z,97.03
2023-01-07T11:34:04.615Z,96.83
2023-01-07T11:39:21.670Z,96.97
2023-01-07T11:44:29.572Z,96.71
2023-01-07T11:49:46.685Z,96.85
2023-01-07T11:54:54.923Z,96.84
2023-01-07T12:00:17.707Z,96.92
2023-01-07T12:05:28.001Z,96.77
2023-01-07T12:10:39.232Z,96.86
2023-01-07T12:15:54.318Z,96.69
2023-01-07T12:21:57.693Z,96.69
2023-01-07T12:27:19.381Z,96.59
2023-01-07T12:32:46.287Z,96.51
2023-01-07T12:37:59.077Z,96.57
2023-01-07T12:43:17.305Z,96.73
2023-01-07T12:48:33.760Z,96.68
2023-01-07T12:53:45.878Z,96.41
2023-01-07T12:58:57.824Z,96.25
2023-01-07T13:04:16.107Z,96.26
2023-01-07T13:09:32.993Z,96.21
2023-01-07T13:14:47.775Z,96.21
2023-01-07T13:19:55.246Z,96.40
2023-01-07T13:25:36.191Z,96.15
2023-01-07T13:30:56.116Z,96.10
2023-01-07T13:36:16.003Z,96.05
2023-01-07T13:41:54.285Z,96.09
2023-01-07T13:47:06.005Z,96.13
2023-01-07T13:52:20.690Z,95.98
2023-01-07T13:57:44.942Z,96.30
2023-01-07T14:03:02.515Z,95.92
2023-01-07T14:08:09.545Z,96.04
2023-01-07T14:13:33.526Z,96.18
2023-01-07T14:19:00.682Z,96.02
2023-01-07T14:24:59.219Z,96.00
2023-01-07T14:30:22.143Z,96.20
2023-01-07T14:35:39.325Z,96.00
2023-01-07T14:41:09.117Z,96.10
2023-01-07T14:46:51.329Z,96.23
2023-01-07T14:52:11.374Z,95.94
2023-01-07T14:57:34.539Z,95.85
2023-01-07T15:03:54.578Z,95.98
2023-01-07T15:09:27.455Z,95.69
2023-01-07T15:15:01.901Z,95.99
2023-01-07T15:20:12.484Z,95.71
2023-01-07T15:25:34.175Z,95.76
2023-01-07T15:30:54.585Z,95.64
2023-01-07T15:36:01.507Z,95.88
2023-01-07T15:41:30.579Z,95.66
2023-01-07T15:46:43.078Z,95.62
2023-01-07T15:51:56.125Z,95.57
2023-01-07T15:57:12.156Z,95.51
2023-01-07T16:02:26.045Z,95.36
2023-01-07T16:07:36.494Z,95.37
2023-01-07T16:12:54.083Z,95.03
2023-01-07T16:18:03.925Z,94.63
2023-01-07T16:23:23.594Z,94.20
2023-01-07T16:28:36.693Z,93.76
2023-01-07T16:33:45.632Z,93.59
2023-01-07T16:39:00.052Z,92.89
2023-01-07T16:44:30.789Z,92.83
2023-01-07T16:49:38.386Z,92.71
2023-01-07T16:54:46.733Z,92.57
2023-01-07T16:59:59.414Z,92.47
2023-01-07T17:05:24.499Z,92.42
2023-01-07T17:10:34.549Z,93.00
2023-01-07T17:15:44.655Z,92.91
2023-01-07T17:20:54.733Z,92.47
2023-01-07T17:26:04.265Z,92.75
2023-01-07T17:31:13.783Z,92.82
2023-01-07T17:36:24.940Z,93.38
2023-01-07T17:41:55.799Z,93.82
2023-01-07T17:47:04.279Z,93.97
2023-01-07T17:52:12.680Z,93.66
2023-01-07T17:57:19.284Z,93.94
2023-01-07T18:02:31.945Z,94.17
2023-01-07T18:07:42.552Z,94.04
2023-01-07T18:12:49.708Z,94.33
2023-01-07T18:17:58.595Z,94.40
2023-01-07T18:23:05.892Z,94.40
2023-01-07T18:28:13.577Z,94.35
2023-01-07T18:33:22.258Z,94.34
2023-01-07T18:38:29.627Z,94.35
2023-01-07T18:43:36.578Z,94.15
2023-01-07T18:48:46.006Z,94.45
2023-01-07T18:53:53.131Z,94.60
2023-01-07T18:59:00.468Z,94.81
2023-01-07T19:04:09.472Z,94.95
2023-01-07T19:09:16.394Z,94.46
2023-01-07T19:14:23.696Z,95.06
2023-01-07T19:19:37.089Z,95.29
2023-01-07T19:24:51.399Z,95.22
2023-01-07T19:29:58.184Z,95.33
2023-01-07T19:35:10.143Z,95.28
2023-01-07T19:40:18.697Z,95.40
2023-01-07T19:45:26.540Z,95.05
2023-01-07T19:50:35.547Z,95.68
2023-01-07T19:55:42.873Z,95.49
2023-01-07T20:00:50.259Z,95.83
2023-01-07T20:06:08.510Z,95.84
2023-01-07T20:11:18.727Z,95.89
2023-01-07T20:16:28.471Z,96.07
2023-01-07T20:21:37.681Z,95.84
2023-01-07T20:26:44.475Z,96.08
2023-01-07T20:31:51.904Z,96.12
2023-01-07T20:37:00.722Z,96.36
2023-01-07T20:42:07.676Z,96.18
2023-01-07T20:47:14.661Z,96.32
2023-01-07T20:52:23.189Z,96.41
2023-01-07T20:57:30.192Z,96.15
2023-01-07T21:02:36.980Z,96.20
2023-01-07T21:07:46.808Z,96.19
2023-01-07T21:12:53.974Z,96.06
2023-01-07T21:18:01.116Z,95.98
2023-01-07T21:23:09.841Z,96.04
2023-01-07T21:28:17.972Z,96.05
2023-01-07T21:33:25.100Z,95.96
2023-01-07T21:38:33.769Z,95.95
2023-01-07T21:43:41.346Z,96.00
2023-01-07T21:48:48.369Z,95.99
2023-01-07T21:53:58.604Z,95.99
2023-01-07T21:59:08.353Z,96.05
2023-01-07T22:04:15.396Z,96.03
2023-01-07T22:09:24.711Z,95.98
2023-01-07T22:14:32.138Z,96.12
2023-01-07T22:19:38.670Z,96.03
2023-01-07T22:24:46.937Z,95.95
2023-01-07T22:29:55.344Z,95.87
2023-01-07T22:35:02.451Z,95.62
2023-01-07T22:40:13.195Z,95.97
2023-01-07T22:45:24.310Z,95.67
2023-01-07T22:50:31.530Z,95.87
2023-01-07T22:55:41.136Z,95.85
2023-01-07T23:01:14.820Z,95.83
2023-01-07T23:06:22.000Z,95.76
2023-01-07T23:11:48.233Z,95.93
2023-01-07T23:16:55.594Z,95.85
2023-01-07T23:22:02.817Z,96.05
2023-01-07T23:27:11.131Z,95.57
2023-01-07T23:32:17.664Z,95.76
2023-01-07T23:37:24.744Z,95.71
2023-01-07T23:42:33.649Z,95.77
2023-01-07T23:47:40.612Z,95.81
2023-01-07T23:52:47.817Z,95.55
2023-01-07T23:57:56.545Z,95.63
